This is the latest recevied weather packets stored in our database for station/object 9A7DI-13. If no packets are shown the sender has not sent any weather packets the latest 10 day(s).
| Time | Temp. | Humidity | Pressure | Rain* | Wind** | Luminosity | Snow |
|---|---|---|---|---|---|---|---|
| 1777948630 | 8.33° C | 69% | 1023.1 hPa | - | - | - | - |
| 1777948030 | 8.33° C | 68% | 1023.2 hPa | - | - | - | - |
| 1777947430 | 8.89° C | 68% | 1023.1 hPa | - | - | - | - |
| 1777946830 | 9.44° C | 67% | 1023.2 hPa | - | - | - | - |
| 1777946230 | 8.89° C | 69% | 1023.2 hPa | - | - | - | - |
| 1777945630 | 9.44° C | 67% | 1023.3 hPa | - | - | - | - |
| 1777945030 | 9.44° C | 65% | 1023.3 hPa | - | - | - | - |
| 1777944430 | 10° C | 64% | 1023.3 hPa | - | - | - | - |
| 1777943830 | 10° C | 65% | 1023.3 hPa | - | - | - | - |
| 1777943230 | 9.44° C | 64% | 1023.3 hPa | - | - | - | - |
| 1777942630 | 10° C | 65% | 1023.3 hPa | - | - | - | - |
| 1777942030 | 9.44° C | 66% | 1023.5 hPa | - | - | - | - |
| 1777941430 | 10.56° C | 63% | 1023.5 hPa | - | - | - | - |
| 1777940830 | 10.56° C | 64% | 1023.4 hPa | - | - | - | - |
| 1777940230 | 10° C | 64% | 1023.5 hPa | - | - | - | - |
| 1777939630 | 10° C | 62% | 1023.5 hPa | - | - | - | - |
| 1777939030 | 10° C | 65% | 1023.6 hPa | - | - | - | - |
| 1777938430 | 10.56° C | 64% | 1023.7 hPa | - | - | - | - |
| 1777937830 | 10.56° C | 64% | 1023.7 hPa | - | - | - | - |
| 1777937230 | 11.11° C | 61% | 1023.8 hPa | - | - | - | - |
| 1777936630 | 10.56° C | 63% | 1023.9 hPa | - | - | - | - |
| 1777936030 | 10.56° C | 61% | 1023.9 hPa | - | - | - | - |
| 1777935430 | 11.11° C | 61% | 1023.9 hPa | - | - | - | - |
| 1777934830 | 10.56° C | 62% | 1024 hPa | - | - | - | - |
| 1777934230 | 10.56° C | 63% | 1024 hPa | - | - | - | - |
* Rain since midnight (hover to see other rain measurements)
** Current wind speed in m/s (hover to see current wind gust speed)